Ander, Texas
Current Conditions -  °F | °C
As of 7:35 PM on Tuesday 25 Nov 2014 (Local Time) from KBEA Reporting Station
Clear Clear  
Wind Chill: 56°   Ceiling: Unl
Heat Index: 56°   Visibility: 10mi
Dew Point: 32°   Wind: 3mph
Humidity: 41%   Direction: 190°S
Pressure: 30.26"   Gusts: NA
Location:  28.6563°N, 97.4287°W
Report Text: KBEA 260135Z AUTO 19003KT 10SM CLR 13/00 A3026 RMK AO2 T01320000
Loading
Personal Weather Stations






























Interactive Weather Map New forecast layout! Learn more

10-Day Weather Forecast

Advertisements
Track Severe Weather on mobile